createdAt,value
2023-02-19T00:00:41.441Z,101571.09
2023-02-19T00:03:11.606Z,101603.53
2023-02-19T00:05:41.193Z,101632.38
2023-02-19T00:08:10.909Z,101628.41
2023-02-19T00:10:41.696Z,101641.59
2023-02-19T00:13:11.373Z,101642.53
2023-02-19T00:15:41.060Z,101642.03
2023-02-19T00:18:10.753Z,101642.56
2023-02-19T00:20:40.476Z,101639.41
2023-02-19T00:23:10.523Z,101643.19
2023-02-19T00:25:41.407Z,101636.19
2023-02-19T00:28:11.115Z,101630.81
2023-02-19T00:30:40.533Z,101642.09
2023-02-19T00:33:10.713Z,101645.78
2023-02-19T00:35:39.929Z,101629.50
2023-02-19T00:38:09.650Z,101622.09
2023-02-19T00:40:41.206Z,101614.09
2023-02-19T00:43:10.999Z,101651.25
2023-02-19T00:45:41.244Z,101657.13
2023-02-19T00:48:11.369Z,101655.16
2023-02-19T00:50:41.450Z,101535.66
2023-02-19T00:53:11.132Z,101659.88
2023-02-19T00:55:41.686Z,101640.41
2023-02-19T00:58:11.588Z,101659.38
2023-02-19T01:00:41.216Z,101689.84
2023-02-19T01:03:11.159Z,101652.56
2023-02-19T01:05:40.607Z,101665.66
2023-02-19T01:08:10.384Z,101656.81
2023-02-19T01:10:39.715Z,101664.16
2023-02-19T01:13:11.117Z,101659.03
2023-02-19T01:15:40.603Z,101663.31
2023-02-19T01:18:10.394Z,101677.28
2023-02-19T01:20:41.280Z,101674.78
2023-02-19T01:23:12.634Z,101670.09
2023-02-19T01:25:42.761Z,101666.09
2023-02-19T01:28:13.670Z,101677.03
2023-02-19T01:30:43.231Z,101631.25
2023-02-19T01:33:15.528Z,101645.75
2023-02-19T01:35:45.630Z,101678.34
2023-02-19T01:38:15.494Z,101677.88
2023-02-19T01:40:45.123Z,101674.16
2023-02-19T01:43:18.536Z,101683.56
2023-02-19T01:45:48.672Z,101687.88
2023-02-19T01:48:22.545Z,101687.00
2023-02-19T01:50:55.670Z,101697.69
2023-02-19T01:53:29.499Z,101491.34
2023-02-19T01:56:01.735Z,101684.19
2023-02-19T01:58:36.489Z,101689.47
2023-02-19T02:01:09.001Z,101696.56
2023-02-19T02:03:43.338Z,101686.13
2023-02-19T02:06:18.811Z,101699.06
2023-02-19T02:09:07.053Z,101699.75
2023-02-19T02:11:37.661Z,101695.97
2023-02-19T02:14:09.055Z,101526.72
2023-02-19T02:16:48.535Z,101692.31
2023-02-19T02:19:32.398Z,101461.16
2023-02-19T02:22:08.216Z,101697.78
2023-02-19T02:25:12.083Z,101687.97
2023-02-19T02:28:03.103Z,101695.09
2023-02-19T02:30:46.060Z,101500.97
2023-02-19T02:33:33.938Z,101700.91
2023-02-19T02:36:09.317Z,101698.38
2023-02-19T02:38:44.257Z,101705.59
2023-02-19T02:41:14.968Z,101699.13
2023-02-19T02:43:46.183Z,101695.03
2023-02-19T02:46:23.972Z,101680.66
2023-02-19T02:48:58.855Z,101703.72
2023-02-19T02:51:31.873Z,101701.25
2023-02-19T02:54:30.849Z,101707.06
2023-02-19T02:57:03.512Z,101711.47
2023-02-19T02:59:40.968Z,101713.00
2023-02-19T03:02:19.043Z,101716.25
2023-02-19T03:05:11.560Z,101704.66
2023-02-19T03:07:59.343Z,101720.00
2023-02-19T03:10:39.033Z,101716.19
2023-02-19T03:13:35.066Z,101724.75
2023-02-19T03:16:43.143Z,101740.19
2023-02-19T03:19:20.961Z,101695.59
2023-02-19T03:21:56.829Z,101748.28
2023-02-19T03:24:51.475Z,101726.22
2023-02-19T03:27:23.358Z,101746.22
2023-02-19T03:30:02.870Z,101698.09
2023-02-19T03:32:35.762Z,101734.75
2023-02-19T03:35:11.474Z,101757.09
2023-02-19T03:37:47.199Z,101736.50
2023-02-19T03:40:18.707Z,101748.53
2023-02-19T03:42:59.300Z,101738.25
2023-02-19T03:45:42.254Z,101740.72
2023-02-19T03:48:26.648Z,101754.56
2023-02-19T03:51:09.686Z,101771.53
2023-02-19T03:53:49.463Z,101764.09
2023-02-19T03:56:27.044Z,101768.38
2023-02-19T03:59:01.826Z,101830.06
2023-02-19T04:01:39.699Z,101762.56
2023-02-19T04:04:17.169Z,101765.78
2023-02-19T04:06:54.969Z,101613.53
2023-02-19T04:09:28.898Z,101784.88
2023-02-19T04:12:07.937Z,101784.31
2023-02-19T04:14:44.549Z,101743.91
2023-02-19T04:17:21.443Z,101796.25
2023-02-19T04:19:54.708Z,101791.22
2023-02-19T04:22:26.140Z,101795.66
2023-02-19T04:24:56.875Z,101786.25
2023-02-19T04:27:27.057Z,101789.59
2023-02-19T04:29:57.597Z,101805.94
2023-02-19T04:32:27.439Z,101809.78
2023-02-19T04:34:57.426Z,101804.97
2023-02-19T04:37:28.516Z,101814.31
2023-02-19T04:39:58.096Z,101827.72
2023-02-19T04:42:27.858Z,101786.09
2023-02-19T04:44:57.747Z,101841.41
2023-02-19T04:47:27.238Z,101836.66
2023-02-19T04:49:56.526Z,101835.69
2023-02-19T04:52:27.328Z,101845.13
2023-02-19T04:54:57.014Z,101850.56
2023-02-19T04:57:26.731Z,101825.22
2023-02-19T04:59:56.170Z,101831.16
2023-02-19T05:02:25.653Z,101848.72
2023-02-19T05:04:55.623Z,101847.56
2023-02-19T05:07:25.493Z,101857.59
2023-02-19T05:09:56.918Z,101811.28
2023-02-19T05:12:27.049Z,101872.88
2023-02-19T05:14:56.776Z,101876.97
2023-02-19T05:17:26.606Z,101884.97
2023-02-19T05:19:56.216Z,101821.84
2023-02-19T05:22:25.758Z,101889.03
2023-02-19T05:24:56.619Z,101892.91
2023-02-19T05:27:26.213Z,101878.88
2023-02-19T05:29:56.214Z,101869.69
2023-02-19T05:32:26.276Z,101893.66
2023-02-19T05:34:55.835Z,101835.41
2023-02-19T05:37:25.317Z,101731.75
2023-02-19T05:39:54.475Z,101890.19
2023-02-19T05:42:25.569Z,101870.16
2023-02-19T05:44:55.357Z,101876.00
2023-02-19T05:47:25.604Z,101890.03
2023-02-19T05:49:55.039Z,101866.72
2023-02-19T05:52:25.308Z,101879.09
2023-02-19T05:54:54.769Z,101900.97
2023-02-19T05:57:25.814Z,101886.44
2023-02-19T05:59:55.216Z,101913.16
2023-02-19T06:02:24.866Z,101908.03
2023-02-19T06:04:59.471Z,101903.91
2023-02-19T06:07:28.966Z,101912.06
2023-02-19T06:09:58.702Z,101908.59
2023-02-19T06:12:29.726Z,101711.63
2023-02-19T06:14:59.390Z,101931.88
2023-02-19T06:17:28.540Z,101935.56
2023-02-19T06:20:00.755Z,101935.56
2023-02-19T06:22:30.526Z,101941.56
2023-02-19T06:25:00.601Z,101955.34
2023-02-19T06:27:31.054Z,101958.63
2023-02-19T06:30:01.158Z,101961.03
2023-02-19T06:32:30.771Z,101942.69
2023-02-19T06:35:00.566Z,101951.00
2023-02-19T06:37:31.364Z,101961.16
2023-02-19T06:40:00.216Z,101953.06
2023-02-19T06:42:33.222Z,101970.44
2023-02-19T06:45:05.705Z,101960.44
2023-02-19T06:47:35.926Z,101968.72
2023-02-19T06:50:06.446Z,101959.44
2023-02-19T06:52:36.053Z,101775.00
2023-02-19T06:55:06.083Z,101896.91
2023-02-19T06:57:37.005Z,101976.78
2023-02-19T07:00:07.212Z,101985.63
2023-02-19T07:02:36.802Z,101995.06
2023-02-19T07:05:06.870Z,102002.69
2023-02-19T07:07:37.204Z,101996.34
2023-02-19T07:10:08.641Z,102029.81
2023-02-19T07:12:39.284Z,102019.22
2023-02-19T07:15:09.741Z,102027.94
2023-02-19T07:17:39.305Z,102026.94
2023-02-19T07:20:09.780Z,102033.28
2023-02-19T07:22:39.276Z,102037.75
2023-02-19T07:25:11.540Z,102034.28
2023-02-19T07:27:42.413Z,102053.38
2023-02-19T07:30:13.152Z,102053.19
2023-02-19T07:32:45.465Z,102053.78
2023-02-19T07:35:16.247Z,102029.44
2023-02-19T07:37:46.402Z,102061.09
2023-02-19T07:40:15.747Z,102060.31
2023-02-19T07:42:47.148Z,101963.13
2023-02-19T07:45:17.327Z,102074.09
2023-02-19T07:47:46.558Z,102074.03
2023-02-19T07:50:16.830Z,102079.84
2023-02-19T07:52:46.620Z,102081.78
2023-02-19T07:55:16.993Z,102095.53
2023-02-19T07:57:48.304Z,102077.47
2023-02-19T08:00:19.412Z,102098.97
2023-02-19T08:03:03.591Z,102096.50
2023-02-19T08:05:35.260Z,102103.16
2023-02-19T08:08:07.798Z,102090.69
2023-02-19T08:10:55.468Z,102076.63
2023-02-19T08:13:30.424Z,102096.09
2023-02-19T08:16:19.931Z,102105.28
2023-02-19T08:18:52.104Z,102113.78
2023-02-19T08:21:22.192Z,102086.41
2023-02-19T08:23:52.343Z,102116.44
2023-02-19T08:26:22.538Z,102092.84
2023-02-19T08:28:54.126Z,102108.66
2023-02-19T08:31:24.292Z,102135.97
2023-02-19T08:33:54.438Z,102127.41
2023-02-19T08:36:23.945Z,102118.59
2023-02-19T08:38:54.509Z,102143.09
2023-02-19T08:41:23.985Z,102145.47
2023-02-19T08:43:54.863Z,102148.09
2023-02-19T08:46:24.507Z,102144.56
2023-02-19T08:48:53.699Z,102127.50
2023-02-19T08:51:23.056Z,102126.84
2023-02-19T08:53:52.305Z,102135.38
2023-02-19T08:56:21.562Z,102138.59
2023-02-19T08:58:50.977Z,102092.66
2023-02-19T09:01:21.391Z,102143.50
2023-02-19T09:03:54.493Z,102137.84
2023-02-19T09:06:23.909Z,102153.06
2023-02-19T09:08:55.712Z,102143.50
2023-02-19T09:11:25.364Z,102154.16
2023-02-19T09:13:57.911Z,102161.00
2023-02-19T09:16:28.510Z,102166.84
2023-02-19T09:18:58.394Z,102167.84
2023-02-19T09:21:28.036Z,102150.63
2023-02-19T09:23:58.151Z,102178.28
2023-02-19T09:26:27.939Z,102178.13
2023-02-19T09:28:58.323Z,102185.09
2023-02-19T09:31:29.394Z,102202.66
2023-02-19T09:33:59.451Z,102210.28
2023-02-19T09:36:29.781Z,102188.25
2023-02-19T09:39:00.580Z,102213.78
2023-02-19T09:41:33.296Z,102201.00
2023-02-19T09:44:05.357Z,102220.72
2023-02-19T09:46:42.317Z,102225.66
2023-02-19T09:49:16.085Z,102226.66
2023-02-19T09:51:50.666Z,102199.25
2023-02-19T09:54:23.789Z,102234.16
2023-02-19T09:56:56.193Z,102239.91
2023-02-19T09:59:28.456Z,102249.69
2023-02-19T10:02:04.210Z,102233.97
2023-02-19T10:04:33.561Z,102248.78
2023-02-19T10:07:03.890Z,102261.75
2023-02-19T10:09:33.456Z,102249.50
2023-02-19T10:12:03.205Z,102266.22
2023-02-19T10:14:37.886Z,102276.63
2023-02-19T10:17:22.174Z,102024.94
2023-02-19T10:19:53.913Z,102251.31
2023-02-19T10:22:23.048Z,102277.34
2023-02-19T10:24:56.149Z,102280.16
2023-02-19T10:27:28.167Z,102294.13
2023-02-19T10:29:58.490Z,102296.00
2023-02-19T10:32:29.969Z,102294.84
2023-02-19T10:35:10.611Z,102305.97
2023-02-19T10:37:45.798Z,102267.88
2023-02-19T10:40:19.597Z,102305.66
2023-02-19T10:42:50.519Z,102299.47
2023-02-19T10:45:24.129Z,102303.75
2023-02-19T10:47:55.096Z,102311.28
2023-02-19T10:50:29.382Z,102301.72
2023-02-19T10:53:00.946Z,102312.31
2023-02-19T10:55:35.151Z,102311.56
2023-02-19T10:58:25.685Z,102311.84
2023-02-19T11:01:16.997Z,102305.38
2023-02-19T11:03:51.485Z,102201.16
2023-02-19T11:06:28.275Z,102297.53
2023-02-19T11:09:00.017Z,102181.16
2023-02-19T11:11:41.465Z,102300.47
2023-02-19T11:14:17.814Z,102268.97
2023-02-19T11:16:52.466Z,102314.41
2023-02-19T11:19:28.299Z,102314.53
2023-02-19T11:21:59.772Z,102317.06
2023-02-19T11:24:34.081Z,102212.22
2023-02-19T11:27:06.087Z,102275.84
2023-02-19T11:29:36.288Z,102312.69
2023-02-19T11:32:31.067Z,102320.88
2023-02-19T11:35:22.739Z,102324.59
2023-02-19T11:37:58.115Z,102313.09
2023-02-19T11:40:40.974Z,102318.13
2023-02-19T11:43:43.525Z,102306.94
2023-02-19T11:46:21.055Z,102073.09
2023-02-19T11:49:09.421Z,102269.41
2023-02-19T11:52:02.947Z,102292.16
2023-02-19T11:54:51.333Z,102299.97
2023-02-19T11:57:36.703Z,102269.09
2023-02-19T12:00:26.241Z,102310.00
2023-02-19T12:03:13.855Z,102313.25
2023-02-19T12:05:54.944Z,102300.28
2023-02-19T12:08:53.129Z,102317.59
2023-02-19T12:11:38.622Z,102344.66
2023-02-19T12:14:40.110Z,102348.44
2023-02-19T12:17:18.211Z,102349.41
2023-02-19T12:20:03.985Z,102343.53
2023-02-19T12:22:35.041Z,102335.81
2023-02-19T12:25:28.161Z,102334.03
2023-02-19T12:28:27.715Z,102347.16
2023-02-19T12:31:35.304Z,102349.72
2023-02-19T12:34:42.788Z,102349.06
2023-02-19T12:37:27.174Z,102326.81
2023-02-19T12:40:16.137Z,102357.84
2023-02-19T12:42:55.610Z,102369.13
2023-02-19T12:45:32.408Z,102373.47
2023-02-19T12:48:09.367Z,102367.34
2023-02-19T12:50:43.609Z,102377.03
2023-02-19T12:53:26.951Z,102385.63
2023-02-19T12:55:58.833Z,102394.34
2023-02-19T12:58:33.671Z,102389.22
2023-02-19T13:01:05.257Z,102442.78
2023-02-19T13:03:39.077Z,102379.91
2023-02-19T13:06:17.536Z,102424.50
2023-02-19T13:09:05.957Z,102430.59
2023-02-19T13:11:41.392Z,102468.69
2023-02-19T13:14:21.258Z,102436.97
2023-02-19T13:17:00.155Z,102438.56
2023-02-19T13:19:31.207Z,102417.88
2023-02-19T13:22:26.596Z,102436.72
2023-02-19T13:24:57.878Z,102433.28
2023-02-19T13:27:53.032Z,102435.94
2023-02-19T13:30:48.653Z,102443.72
2023-02-19T13:33:33.343Z,102465.31
2023-02-19T13:36:16.759Z,102272.84
2023-02-19T13:38:53.507Z,102465.25
2023-02-19T13:41:32.066Z,102463.59
2023-02-19T13:44:05.113Z,102454.84
2023-02-19T13:46:41.560Z,102421.38
2023-02-19T13:49:41.478Z,102469.47
2023-02-19T13:52:42.017Z,102479.00
2023-02-19T13:55:52.803Z,102466.00
2023-02-19T13:58:55.965Z,102473.78
2023-02-19T14:02:14.354Z,102473.84
2023-02-19T14:04:54.079Z,102466.09
2023-02-19T14:07:51.700Z,102466.06
2023-02-19T14:11:02.507Z,102484.06
2023-02-19T14:14:02.039Z,102487.59
2023-02-19T14:16:51.470Z,102478.13
2023-02-19T14:19:59.769Z,102471.97
2023-02-19T14:23:10.765Z,102455.69
2023-02-19T14:25:54.108Z,102458.16
2023-02-19T14:28:36.746Z,102439.19
2023-02-19T14:31:29.653Z,102444.94
2023-02-19T14:34:03.319Z,102442.81
2023-02-19T14:36:49.108Z,102448.34
2023-02-19T14:39:23.306Z,102437.63
2023-02-19T14:41:56.181Z,102437.72
2023-02-19T14:44:28.578Z,102442.88
2023-02-19T14:47:01.781Z,102452.72
2023-02-19T14:49:38.834Z,102444.06
2023-02-19T14:52:15.629Z,102299.41
2023-02-19T14:54:51.993Z,102439.28
2023-02-19T14:57:25.637Z,102437.59
2023-02-19T14:59:57.523Z,102434.22
2023-02-19T15:02:31.340Z,102429.13
2023-02-19T15:05:02.750Z,102420.09
2023-02-19T15:07:35.274Z,102434.94
2023-02-19T15:10:07.093Z,102445.69
2023-02-19T15:12:40.646Z,102415.97
2023-02-19T15:15:17.474Z,102450.66
2023-02-19T15:17:46.961Z,102447.28
2023-02-19T15:20:20.885Z,102452.25
2023-02-19T15:22:51.111Z,102450.63
2023-02-19T15:25:23.934Z,102470.53
2023-02-19T15:27:53.530Z,102451.09
2023-02-19T15:30:25.749Z,102454.69
2023-02-19T15:32:56.480Z,102456.09
2023-02-19T15:35:27.713Z,102447.72
2023-02-19T15:37:57.450Z,102466.38
2023-02-19T15:40:30.964Z,102466.63
2023-02-19T15:43:01.402Z,102456.59
2023-02-19T15:45:36.875Z,102480.75
2023-02-19T15:48:09.965Z,102481.72
2023-02-19T15:50:44.151Z,102490.06
2023-02-19T15:53:18.433Z,102482.44
2023-02-19T15:55:57.989Z,102482.56
2023-02-19T15:58:34.707Z,102478.34
2023-02-19T16:01:08.296Z,102451.88
2023-02-19T16:03:37.711Z,102506.00
2023-02-19T16:06:11.354Z,102516.28
2023-02-19T16:08:42.526Z,102512.13
2023-02-19T16:11:29.608Z,102506.66
2023-02-19T16:14:19.541Z,102519.94
2023-02-19T16:16:53.948Z,102521.63
2023-02-19T16:19:28.227Z,102513.06
2023-02-19T16:21:59.534Z,102526.06
2023-02-19T16:24:32.913Z,102515.44
2023-02-19T16:27:04.587Z,102519.91
2023-02-19T16:29:35.306Z,102487.19
2023-02-19T16:32:08.790Z,102477.94
2023-02-19T16:34:43.437Z,102527.72
2023-02-19T16:37:32.652Z,102519.09
2023-02-19T16:40:52.674Z,102522.44
2023-02-19T16:43:33.028Z,102513.94
2023-02-19T16:46:03.813Z,102504.28
2023-02-19T16:48:33.250Z,102502.44
2023-02-19T16:51:03.157Z,102509.56
2023-02-19T16:53:33.577Z,102507.03
2023-02-19T16:56:14.749Z,102494.91
2023-02-19T16:58:48.563Z,102506.97
2023-02-19T17:01:18.754Z,102513.75
2023-02-19T17:03:48.694Z,102521.50
2023-02-19T17:06:20.670Z,102524.19
2023-02-19T17:08:50.576Z,102532.66
2023-02-19T17:11:20.171Z,102523.41
2023-02-19T17:13:51.226Z,102531.75
2023-02-19T17:16:24.289Z,102532.72
2023-02-19T17:18:57.019Z,102527.63
2023-02-19T17:21:28.393Z,102536.38
2023-02-19T17:23:58.395Z,102550.25
2023-02-19T17:26:29.231Z,102551.03
2023-02-19T17:29:01.522Z,102556.88
2023-02-19T17:31:31.324Z,102557.72
2023-02-19T17:34:01.126Z,102377.44
2023-02-19T17:36:32.855Z,102544.09
2023-02-19T17:39:04.164Z,102556.31
2023-02-19T17:41:34.297Z,102558.88
2023-02-19T17:44:05.625Z,102545.22
2023-02-19T17:46:35.358Z,102549.63
2023-02-19T17:49:05.569Z,102563.41
2023-02-19T17:51:35.610Z,102567.59
2023-02-19T17:54:08.032Z,102511.81
2023-02-19T17:56:43.543Z,102546.25
2023-02-19T17:59:15.961Z,102547.94
2023-02-19T18:01:47.177Z,102546.25
2023-02-19T18:04:17.392Z,102562.63
2023-02-19T18:06:48.518Z,102534.25
2023-02-19T18:09:19.500Z,102562.59
2023-02-19T18:11:51.485Z,102562.59
2023-02-19T18:14:22.511Z,102528.22
2023-02-19T18:16:52.437Z,102560.97
2023-02-19T18:19:23.016Z,102529.94
2023-02-19T18:21:52.743Z,102488.66
2023-02-19T18:24:22.505Z,102531.66
2023-02-19T18:26:52.623Z,102539.41
2023-02-19T18:29:26.030Z,102502.31
2023-02-19T18:31:55.702Z,102528.19
2023-02-19T18:34:25.008Z,102524.81
2023-02-19T18:36:54.532Z,102528.16
2023-02-19T18:39:24.357Z,102449.84
2023-02-19T18:41:54.274Z,102529.09
2023-02-19T18:44:26.625Z,102532.56
2023-02-19T18:46:56.545Z,102548.06
2023-02-19T18:49:26.695Z,102536.88
2023-02-19T18:51:59.638Z,102540.31
2023-02-19T18:54:29.976Z,102543.75
2023-02-19T18:57:02.410Z,102512.78
2023-02-19T18:59:33.786Z,102505.94
2023-02-19T19:02:05.089Z,102553.25
2023-02-19T19:04:34.278Z,102499.88
2023-02-19T19:07:03.633Z,102557.56
2023-02-19T19:09:34.162Z,102551.53
2023-02-19T19:12:05.273Z,102566.16
2023-02-19T19:14:35.722Z,102561.84
2023-02-19T19:17:05.531Z,102552.41
2023-02-19T19:19:36.044Z,102553.28
2023-02-19T19:22:06.225Z,102361.31
2023-02-19T19:24:35.722Z,102544.66
2023-02-19T19:27:05.650Z,102546.41
2023-02-19T19:29:36.260Z,102573.94
2023-02-19T19:32:08.391Z,102542.09
2023-02-19T19:34:38.307Z,102544.69
2023-02-19T19:37:08.448Z,102544.72
2023-02-19T19:39:40.769Z,102532.63
2023-02-19T19:42:10.858Z,102535.22
2023-02-19T19:44:41.712Z,102534.38
2023-02-19T19:47:11.326Z,102297.69
2023-02-19T19:49:42.053Z,102526.59
2023-02-19T19:52:11.928Z,102524.84
2023-02-19T19:54:43.702Z,102486.13
2023-02-19T19:57:14.137Z,102521.41
2023-02-19T19:59:45.249Z,102530.88
2023-02-19T20:02:15.149Z,102522.25
2023-02-19T20:04:44.992Z,102527.41
2023-02-19T20:07:15.127Z,102540.34
2023-02-19T20:09:48.520Z,102524.03
2023-02-19T20:12:18.532Z,102530.03
2023-02-19T20:14:49.122Z,102530.91
2023-02-19T20:17:19.023Z,102526.56
2023-02-19T20:19:51.787Z,102519.69
2023-02-19T20:22:21.807Z,102521.44
2023-02-19T20:24:52.426Z,102517.13
2023-02-19T20:27:22.968Z,102512.81
2023-02-19T20:29:53.560Z,102508.50
2023-02-19T20:32:23.449Z,102511.09
2023-02-19T20:34:53.132Z,102515.41
2023-02-19T20:37:22.880Z,102466.34
2023-02-19T20:39:52.433Z,102499.03
2023-02-19T20:42:22.149Z,102508.50
2023-02-19T20:44:52.101Z,102480.97
2023-02-19T20:47:22.719Z,102504.22
2023-02-19T20:49:52.196Z,102492.16
2023-02-19T20:52:22.026Z,102504.22
2023-02-19T20:54:57.210Z,102499.91
2023-02-19T20:57:27.273Z,102491.28
2023-02-19T20:59:57.393Z,102505.94
2023-02-19T21:02:29.562Z,102496.44
2023-02-19T21:04:59.873Z,102456.00
2023-02-19T21:07:28.889Z,102484.41
2023-02-19T21:09:58.063Z,102470.63
2023-02-19T21:12:29.576Z,102472.31
2023-02-19T21:14:59.111Z,102470.63
2023-02-19T21:17:31.723Z,102473.16
2023-02-19T21:20:01.281Z,102464.59
2023-02-19T21:22:30.416Z,102480.94
2023-02-19T21:25:00.157Z,102486.13
2023-02-19T21:27:29.566Z,102469.78
2023-02-19T21:29:58.914Z,102474.94
2023-02-19T21:32:28.532Z,102497.31
2023-02-19T21:34:59.014Z,102485.28
2023-02-19T21:37:28.691Z,102487.00
2023-02-19T21:40:03.035Z,102486.13
2023-02-19T21:42:32.767Z,102480.94
2023-02-19T21:45:01.880Z,102509.38
2023-02-19T21:47:31.138Z,102474.06
2023-02-19T21:50:02.104Z,102468.03
2023-02-19T21:52:31.625Z,102423.28
2023-02-19T21:55:03.121Z,102458.56
2023-02-19T21:57:34.370Z,102455.97
2023-02-19T22:00:07.738Z,102449.09
2023-02-19T22:02:39.304Z,102462.88
2023-02-19T22:05:12.810Z,102449.06
2023-02-19T22:07:42.107Z,102456.81
2023-02-19T22:10:12.091Z,102455.97
2023-02-19T22:12:42.143Z,102461.13
2023-02-19T22:15:11.827Z,102455.06
2023-02-19T22:17:41.553Z,102444.75
2023-02-19T22:20:17.300Z,102449.91
2023-02-19T22:22:47.447Z,102460.25
2023-02-19T22:25:19.618Z,102447.38
2023-02-19T22:27:49.822Z,102455.94
2023-02-19T22:30:20.122Z,102446.47
2023-02-19T22:32:50.181Z,102445.63
2023-02-19T22:35:21.070Z,102462.88
2023-02-19T22:37:50.871Z,102441.34
2023-02-19T22:40:20.945Z,102434.41
2023-02-19T22:42:50.430Z,102434.41
2023-02-19T22:45:20.842Z,102424.91
2023-02-19T22:47:50.478Z,102419.72
2023-02-19T22:50:23.068Z,102406.81
2023-02-19T22:52:55.011Z,102437.84
2023-02-19T22:55:24.405Z,102408.50
2023-02-19T22:57:53.660Z,102418.84
2023-02-19T23:00:24.034Z,102399.88
2023-02-19T23:02:53.955Z,102401.63
2023-02-19T23:05:25.647Z,102397.31
2023-02-19T23:07:55.717Z,102392.16
2023-02-19T23:10:24.889Z,102289.03
2023-02-19T23:12:54.873Z,102397.34
2023-02-19T23:15:24.859Z,102404.22
2023-02-19T23:17:54.745Z,102352.63
2023-02-19T23:20:25.840Z,102393.84
2023-02-19T23:22:55.628Z,102425.75
2023-02-19T23:25:25.040Z,102386.97
2023-02-19T23:27:54.796Z,102395.56
2023-02-19T23:30:24.657Z,102373.25
2023-02-19T23:32:54.846Z,102412.81
2023-02-19T23:35:25.626Z,102399.84
2023-02-19T23:37:56.006Z,102404.97
2023-02-19T23:40:25.589Z,102412.75
2023-02-19T23:42:56.960Z,102398.97
2023-02-19T23:45:26.369Z,102386.06
2023-02-19T23:47:56.216Z,102197.88
2023-02-19T23:50:27.483Z,102393.75
2023-02-19T23:52:59.357Z,102411.84
2023-02-19T23:55:28.959Z,102336.16
2023-02-19T23:58:01.192Z,102377.34
